| time (UTC) | temp F | wind direction | speed MPH | gust MPH | rain 1hr in | rain 24hr in | rain mn in | humidity % | barometer mb |
| 20260504081634 | 47 | 125 | 0.0 | 1.0 | 0.00 | 0.00 | 0.00 | 68 | 1004.0 |
| 20260504081133 | 47 | 107 | 0.0 | 1.0 | 0.00 | 0.00 | 0.00 | 67 | 1004.0 |
| 20260504080633 | 47 | 101 | 0.0 | 1.0 | 0.00 | 0.00 | 0.00 | 67 | 1004.0 |
| 20260504080131 | 47 | 147 | 0.0 | 0.0 | 0.00 | 0.00 | 0.00 | 66 | 1004.2 |
| 20260504070118 | 49 | 226 | 0.0 | 1.0 | 0.00 | 0.00 | 0.00 | 61 | 1004.6 |
| 20260504050540 | 54 | 164 | 0.0 | 0.0 | 0.00 | 0.00 | 0.00 | 49 | 1006.0 |
| 20260504050257 | 54 | 165 | 0.0 | 0.0 | 0.00 | 0.00 | 0.00 | 50 | 1006.0 |
| 20260504045535 | 53 | 165 | 0.0 | 0.0 | 0.00 | 0.00 | 0.00 | 50 | 1005.9 |
| 20260504044531 | 54 | 165 | 0.0 | 0.0 | 0.00 | 0.00 | 0.00 | 50 | 1006.0 |
| 20260504044032 | 54 | 165 | 0.0 | 0.0 | 0.00 | 0.00 | 0.00 | 50 | 1006.1 |
| 20260504043750 | 55 | 164 | 0.0 | 0.0 | 0.00 | 0.00 | 0.00 | 49 | 1006.0 |
| 20260504043030 | 55 | 164 | 0.0 | 1.0 | 0.00 | 0.00 | 0.00 | 48 | 1006.1 |
| 20260504042528 | 56 | 166 | 0.0 | 1.0 | 0.00 | 0.00 | 0.00 | 46 | 1006.1 |
| 20260504042027 | 56 | 197 | 0.0 | 1.0 | 0.00 | 0.00 | 0.00 | 45 | 1006.2 |
| 20260504041524 | 57 | 247 | 0.0 | 0.0 | 0.00 | 0.00 | 0.00 | 44 | 1006.2 |
| 20260504041022 | 57 | 247 | 0.0 | 0.0 | 0.00 | 0.00 | 0.00 | 43 | 1006.2 |
| 20260504040741 | 58 | 247 | 0.0 | 0.0 | 0.00 | 0.00 | 0.00 | 41 | 1006.2 |
| 20260504040022 | 58 | 247 | 0.0 | 0.0 | 0.00 | 0.00 | 0.00 | 41 | 1006.2 |
| 20260504035520 | 59 | 247 | 0.0 | 0.0 | 0.00 | 0.00 | 0.00 | 40 | 1006.3 |
| 20260504035019 | 59 | 247 | 0.0 | 0.0 | 0.00 | 0.00 | 0.00 | 40 | 1006.3 |
| 20260504034514 | 60 | 247 | 0.0 | 1.0 | 0.00 | 0.00 | 0.00 | 39 | 1006.3 |
| 20260504034232 | 60 | 247 | 0.0 | 1.0 | 0.00 | 0.00 | 0.00 | 39 | 1006.4 |
| 20260504033232 | 60 | 246 | 0.0 | 2.0 | 0.00 | 0.00 | 0.00 | 37 | 1006.5 |
| 20260504032507 | 60 | 249 | 0.0 | 1.0 | 0.00 | 0.00 | 0.00 | 38 | 1006.4 |
| 20260504032005 | 61 | 247 | 0.0 | 1.0 | 0.00 | 0.00 | 0.00 | 37 | 1006.5 |
| 20260504031506 | 61 | 247 | 0.0 | 1.0 | 0.00 | 0.00 | 0.00 | 36 | 1006.5 |
| 20260504031004 | 61 | 247 | 0.0 | 0.0 | 0.00 | 0.00 | 0.00 | 36 | 1006.4 |
| 20260504030504 | 62 | 247 | 0.0 | 0.0 | 0.00 | 0.00 | 0.00 | 36 | 1006.4 |
| 20260504030002 | 62 | 247 | 0.0 | 0.0 | 0.00 | 0.00 | 0.00 | 35 | 1006.4 |
| 20260504025455 | 62 | 247 | 0.0 | 1.0 | 0.00 | 0.00 | 0.00 | 35 | 1006.3 |
| 20260504025206 | 62 | 247 | 0.0 | 2.0 | 0.00 | 0.00 | 0.00 | 35 | 1006.3 |
| 20260504023944 | 63 | 246 | 0.0 | 2.0 | 0.00 | 0.00 | 0.00 | 34 | 1006.1 |
| 20260504023442 | 64 | 247 | 0.0 | 2.0 | 0.00 | 0.00 | 0.00 | 34 | 1006.1 |
| 20260504022942 | 64 | 218 | 0.0 | 2.0 | 0.00 | 0.00 | 0.00 | 33 | 1006.1 |
| 20260504022444 | 64 | 254 | 0.0 | 1.0 | 0.00 | 0.00 | 0.00 | 32 | 1006.0 |
| 20260504021940 | 64 | 254 | 0.0 | 0.0 | 0.00 | 0.00 | 0.00 | 32 | 1005.9 |
| 20260504021440 | 65 | 254 | 0.0 | 0.0 | 0.00 | 0.00 | 0.00 | 32 | 1005.9 |
| 20260504020940 | 66 | 253 | 0.0 | 1.0 | 0.00 | 0.00 | 0.00 | 31 | 1005.9 |
| 20260504020438 | 66 | 253 | 0.0 | 2.0 | 0.00 | 0.00 | 0.00 | 30 | 1005.9 |
| 20260504015936 | 67 | 248 | 0.0 | 2.0 | 0.00 | 0.00 | 0.00 | 30 | 1005.9 |
| 20260504015432 | 67 | 249 | 0.0 | 6.0 | 0.00 | 0.00 | 0.00 | 30 | 1005.8 |
| 20260504014931 | 67 | 245 | 1.0 | 6.0 | 0.00 | 0.00 | 0.00 | 30 | 1005.8 |
| 20260504014433 | 67 | 320 | 0.0 | 3.0 | 0.00 | 0.00 | 0.00 | 30 | 1005.8 |
| 20260504013931 | 67 | 247 | 0.0 | 3.0 | 0.00 | 0.00 | 0.00 | 30 | 1005.8 |
| 20260504013434 | 68 | 247 | 0.0 | 3.0 | 0.00 | 0.00 | 0.00 | 30 | 1005.8 |
| 20260504013200 | 68 | 272 | 0.0 | 3.0 | 0.00 | 0.00 | 0.00 | 29 | 1005.8 |
| 20260504012431 | 69 | 271 | 1.0 | 4.0 | 0.00 | 0.00 | 0.00 | 28 | 1005.7 |
| 20260504011932 | 69 | 267 | 1.0 | 4.0 | 0.00 | 0.00 | 0.00 | 28 | 1005.7 |
| 20260504011432 | 70 | 276 | 1.0 | 3.0 | 0.00 | 0.00 | 0.00 | 28 | 1005.6 |
| 20260504011150 | 70 | 269 | 1.0 | 3.0 | 0.00 | 0.00 | 0.00 | 28 | 1005.6 |
| 20260504010431 | 71 | 291 | 1.0 | 4.0 | 0.00 | 0.00 | 0.00 | 27 | 1005.5 |
| 20260504010152 | 71 | 249 | 2.0 | 6.0 | 0.00 | 0.00 | 0.00 | 27 | 1005.3 |
| 20260504005431 | 72 | 227 | 2.0 | 7.0 | 0.00 | 0.00 | 0.00 | 26 | 1005.5 |
| 20260504004932 | 72 | 237 | 2.0 | 7.0 | 0.00 | 0.00 | 0.00 | 26 | 1005.5 |
| 20260504004431 | 72 | 246 | 2.0 | 5.0 | 0.00 | 0.00 | 0.00 | 26 | 1005.3 |
| 20260504004155 | 73 | 257 | 2.0 | 5.0 | 0.00 | 0.00 | 0.00 | 25 | 1005.3 |
| 20260504003433 | 73 | 236 | 2.0 | 8.0 | 0.00 | 0.00 | 0.00 | 25 | 1005.3 |
| 20260504003156 | 74 | 228 | 2.0 | 8.0 | 0.00 | 0.00 | 0.00 | 24 | 1005.5 |
| 20260504002435 | 74 | 261 | 2.0 | 6.0 | 0.00 | 0.00 | 0.00 | 24 | 1005.3 |
| 20260504001932 | 75 | 297 | 3.0 | 11.0 | 0.00 | 0.00 | 0.00 | 24 | 1005.3 |
| 20260504001433 | 75 | 230 | 4.0 | 11.0 | 0.00 | 0.00 | 0.00 | 23 | 1005.3 |
| 20260504000932 | 75 | 303 | 4.0 | 10.0 | 0.00 | 0.00 | 0.00 | 23 | 1005.2 |
| 20260504000657 | 75 | 230 | 3.0 | 9.0 | 0.00 | 0.00 | 0.00 | 23 | 1005.3 |
| 20260503235933 | 75 | 342 | 4.0 | 11.0 | 0.00 | 0.00 | 0.00 | 23 | 1005.2 |
| 20260503235434 | 75 | 246 | 4.0 | 11.0 | 0.00 | 0.00 | 0.00 | 23 | 1005.1 |
| 20260503234934 | 75 | 264 | 4.0 | 11.0 | 0.00 | 0.00 | 0.00 | 24 | 1005.1 |
| 20260503234433 | 75 | 312 | 4.0 | 12.0 | 0.00 | 0.00 | 0.00 | 24 | 1005.1 |
| 20260503233931 | 76 | 227 | 4.0 | 12.0 | 0.00 | 0.00 | 0.00 | 24 | 1005.1 |
| 20260503233432 | 76 | 303 | 5.0 | 14.0 | 0.00 | 0.00 | 0.00 | 23 | 1005.1 |
| 20260503232932 | 76 | 311 | 5.0 | 14.0 | 0.00 | 0.00 | 0.00 | 24 | 1005.1 |
| 20260503232432 | 76 | 285 | 4.0 | 14.0 | 0.00 | 0.00 | 0.00 | 25 | 1005.0 |
| 20260503231934 | 76 | 294 | 3.0 | 9.0 | 0.00 | 0.00 | 0.00 | 24 | 1005.0 |
| 20260503231432 | 76 | 275 | 4.0 | 12.0 | 0.00 | 0.00 | 0.00 | 25 | 1005.0 |
| 20260503230932 | 76 | 242 | 3.0 | 12.0 | 0.00 | 0.00 | 0.00 | 24 | 1005.0 |
| 20260503230432 | 76 | 218 | 3.0 | 10.0 | 0.00 | 0.00 | 0.00 | 24 | 1005.1 |
| 20260503230156 | 76 | 332 | 4.0 | 9.0 | 0.00 | 0.00 | 0.00 | 25 | 1005.1 |
| 20260503225430 | 76 | 297 | 5.0 | 15.0 | 0.00 | 0.00 | 0.00 | 25 | 1005.1 |
| 20260503224930 | 76 | 250 | 4.0 | 15.0 | 0.00 | 0.00 | 0.00 | 24 | 1005.1 |
| 20260503224430 | 76 | 231 | 3.0 | 12.0 | 0.00 | 0.00 | 0.00 | 24 | 1005.1 |
| 20260503223927 | 76 | 308 | 5.0 | 16.0 | 0.00 | 0.00 | 0.00 | 24 | 1005.0 |
| 20260503223428 | 76 | 258 | 5.0 | 16.0 | 0.00 | 0.00 | 0.00 | 25 | 1005.0 |
| 20260503222927 | 76 | 283 | 6.0 | 14.0 | 0.00 | 0.00 | 0.00 | 26 | 1004.9 |
| 20260503222652 | 76 | 342 | 6.0 | 14.0 | 0.00 | 0.00 | 0.00 | 25 | 1005.1 |
| 20260503221929 | 76 | 303 | 5.0 | 14.0 | 0.00 | 0.00 | 0.00 | 25 | 1005.0 |
| 20260503221424 | 76 | 275 | 3.0 | 11.0 | 0.00 | 0.00 | 0.00 | 24 | 1005.0 |
| 20260503220917 | 76 | 268 | 3.0 | 8.0 | 0.00 | 0.00 | 0.00 | 34 | 1005.0 |
| 20260503220413 | 76 | 268 | 3.0 | 11.0 | 0.00 | 0.00 | 0.00 | 34 | 1005.0 |
| 20260503215913 | 76 | 133 | 5.0 | 14.0 | 0.00 | 0.00 | 0.00 | 35 | 1004.9 |
| 20260503215413 | 76 | 236 | 5.0 | 14.0 | 0.00 | 0.00 | 0.00 | 35 | 1004.9 |
| 20260503214912 | 76 | 233 | 3.0 | 11.0 | 0.00 | 0.00 | 0.00 | 35 | 1004.9 |
| 20260503214411 | 76 | 219 | 4.0 | 13.0 | 0.00 | 0.00 | 0.00 | 37 | 1004.9 |
| 20260503213911 | 75 | 240 | 4.0 | 13.0 | 0.00 | 0.00 | 0.00 | 35 | 1005.0 |
| 20260503213637 | 75 | 253 | 3.0 | 12.0 | 0.00 | 0.00 | 0.00 | 36 | 1005.1 |
| 20260503212908 | 75 | 242 | 4.0 | 12.0 | 0.00 | 0.00 | 0.00 | 36 | 1005.1 |
| 20260503212410 | 75 | 317 | 5.0 | 14.0 | 0.00 | 0.00 | 0.00 | 37 | 1005.1 |
| 20260503211907 | 74 | 247 | 5.0 | 14.0 | 0.00 | 0.00 | 0.00 | 38 | 1005.1 |
| 20260503211405 | 74 | 100 | 5.0 | 12.0 | 0.00 | 0.00 | 0.00 | 37 | 1005.3 |
| 20260503210908 | 74 | 268 | 5.0 | 17.0 | 0.00 | 0.00 | 0.00 | 37 | 1005.3 |
| 20260503210407 | 74 | 105 | 5.0 | 17.0 | 0.00 | 0.00 | 0.00 | 40 | 1005.5 |
| 20260503205904 | 74 | 235 | 5.0 | 14.0 | 0.00 | 0.00 | 0.00 | 39 | 1005.6 |
| 20260503205404 | 74 | 270 | 5.0 | 14.0 | 0.00 | 0.00 | 0.00 | 39 | 1005.6 |
| 20260503204907 | 74 | 297 | 4.0 | 13.0 | 0.00 | 0.00 | 0.00 | 39 | 1005.7 |
| 20260503204630 | 74 | 159 | 4.0 | 12.0 | 0.00 | 0.00 | 0.00 | 37 | 1005.7 |
| 20260503204131 | 74 | 330 | 6.0 | 16.0 | 0.00 | 0.00 | 0.00 | 30 | 1005.9 |
| 20260503202905 | 75 | 296 | 7.0 | 15.0 | 0.00 | 0.00 | 0.00 | 28 | 1005.7 |
| 20260503202404 | 76 | 268 | 6.0 | 13.0 | 0.00 | 0.00 | 0.00 | 27 | 1005.6 |
| 20260503201904 | 76 | 40 | 6.0 | 14.0 | 0.00 | 0.00 | 0.00 | 29 | 1005.6 |
| 20260503201403 | 76 | 261 | 5.0 | 14.0 | 0.00 | 0.00 | 0.00 | 28 | 1005.6 |
| 20260503200904 | 76 | 277 | 4.0 | 13.0 | 0.00 | 0.00 | 0.00 | 28 | 1005.6 |
| 20260503200406 | 75 | 347 | 5.0 | 12.0 | 0.00 | 0.00 | 0.00 | 32 | 1005.7 |
| 20260503195904 | 74 | 251 | 5.0 | 14.0 | 0.00 | 0.00 | 0.00 | 34 | 1005.7 |
| 20260503195406 | 74 | 237 | 5.0 | 14.0 | 0.00 | 0.00 | 0.00 | 32 | 1005.7 |
| 20260503194904 | 74 | 301 | 4.0 | 12.0 | 0.00 | 0.00 | 0.00 | 32 | 1005.6 |
| 20260503194403 | 74 | 294 | 3.0 | 12.0 | 0.00 | 0.00 | 0.00 | 34 | 1005.9 |
| 20260503193904 | 74 | 138 | 4.0 | 13.0 | 0.00 | 0.00 | 0.00 | 34 | 1005.9 |
| 20260503193403 | 74 | 145 | 4.0 | 13.0 | 0.00 | 0.00 | 0.00 | 35 | 1006.1 |
| 20260503193130 | 74 | 261 | 4.0 | 12.0 | 0.00 | 0.00 | 0.00 | 35 | 1006.1 |
| 20260503192404 | 74 | 262 | 3.0 | 12.0 | 0.00 | 0.00 | 0.00 | 33 | 1006.2 |
| 20260503191903 | 74 | 216 | 3.0 | 11.0 | 0.00 | 0.00 | 0.00 | 36 | 1006.2 |
| 20260503191631 | 73 | 303 | 4.0 | 12.0 | 0.00 | 0.00 | 0.00 | 35 | 1006.2 |
| 20260503190855 | 73 | 207 | 4.0 | 12.0 | 0.00 | 0.00 | 0.00 | 36 | 1006.3 |
| 20260503190350 | 73 | 166 | 4.0 | 10.0 | 0.00 | 0.00 | 0.00 | 36 | 1006.4 |
| 20260503185844 | 72 | 216 | 4.0 | 10.0 | 0.00 | 0.00 | 0.00 | 37 | 1006.6 |
| 20260503185343 | 72 | 260 | 4.0 | 13.0 | 0.00 | 0.00 | 0.00 | 37 | 1006.5 |
| 20260503184843 | 72 | 298 | 5.0 | 13.0 | 0.00 | 0.00 | 0.00 | 36 | 1006.7 |
| 20260503184343 | 72 | 247 | 5.0 | 13.0 | 0.00 | 0.00 | 0.00 | 36 | 1006.7 |
| 20260503183843 | 72 | 116 | 4.0 | 13.0 | 0.00 | 0.00 | 0.00 | 37 | 1006.7 |
| 20260503183343 | 72 | 301 | 3.0 | 11.0 | 0.00 | 0.00 | 0.00 | 39 | 1006.7 |
| 20260503182844 | 72 | 221 | 3.0 | 11.0 | 0.00 | 0.00 | 0.00 | 39 | 1006.8 |
| 20260503182344 | 71 | 331 | 4.0 | 12.0 | 0.00 | 0.00 | 0.00 | 37 | 1006.8 |
| 20260503181844 | 71 | 152 | 4.0 | 12.0 | 0.00 | 0.00 | 0.00 | 39 | 1006.9 |
| 20260503181343 | 71 | 319 | 4.0 | 12.0 | 0.00 | 0.00 | 0.00 | 37 | 1007.0 |
| 20260503180843 | 70 | 190 | 4.0 | 12.0 | 0.00 | 0.00 | 0.00 | 38 | 1007.1 |
| 20260503180343 | 71 | 263 | 4.0 | 11.0 | 0.00 | 0.00 | 0.00 | 39 | 1007.2 |
| 20260503175842 | 70 | 249 | 4.0 | 12.0 | 0.00 | 0.00 | 0.00 | 40 | 1007.3 |
| 20260503175342 | 69 | 204 | 4.0 | 14.0 | 0.00 | 0.00 | 0.00 | 39 | 1007.3 |
| 20260503174841 | 69 | 219 | 4.0 | 17.0 | 0.00 | 0.00 | 0.00 | 40 | 1007.4 |
| 20260503174341 | 69 | 274 | 5.0 | 17.0 | 0.00 | 0.00 | 0.00 | 38 | 1007.4 |
| 20260503173841 | 68 | 157 | 5.0 | 12.0 | 0.00 | 0.00 | 0.00 | 40 | 1007.6 |
| 20260503173341 | 68 | 71 | 4.0 | 12.0 | 0.00 | 0.00 | 0.00 | 39 | 1007.6 |
| 20260503172841 | 68 | 156 | 4.0 | 12.0 | 0.00 | 0.00 | 0.00 | 40 | 1007.6 |
| 20260503172342 | 67 | 275 | 4.0 | 12.0 | 0.00 | 0.00 | 0.00 | 40 | 1007.6 |
| 20260503171843 | 67 | 265 | 4.0 | 11.0 | 0.00 | 0.00 | 0.00 | 39 | 1007.7 |
| 20260503171341 | 67 | 265 | 4.0 | 11.0 | 0.00 | 0.00 | 0.00 | 40 | 1007.7 |
| 20260503170841 | 67 | 285 | 4.0 | 17.0 | 0.00 | 0.00 | 0.00 | 41 | 1007.7 |
| 20260503170341 | 67 | 81 | 4.0 | 17.0 | 0.00 | 0.00 | 0.00 | 40 | 1007.7 |
| 20260503150751 | 60 | 144 | 4.0 | 11.0 | 0.00 | 0.00 | 0.00 | 46 | 1009.4 |
| 20260503150244 | 59 | 131 | 4.0 | 11.0 | 0.00 | 0.00 | 0.00 | 48 | 1009.6 |
| 20260503140241 | 52 | 176 | 5.0 | 9.0 | 0.00 | 0.00 | 0.00 | 59 | 1010.4 |
| 20260503131233 | 51 | 191 | 3.0 | 8.0 | 0.00 | 0.00 | 0.00 | 58 | 1011.2 |
| 20260503130952 | 51 | 188 | 2.0 | 7.0 | 0.00 | 0.00 | 0.00 | 56 | 1011.4 |
| 20260503130454 | 52 | 218 | 3.0 | 7.0 | 0.00 | 0.00 | 0.00 | 54 | 1011.6 |
| 20260503110723 | 50 | 228 | 3.0 | 7.0 | 0.00 | 0.00 | 0.00 | 57 | 1011.8 |
| 20260503110223 | 50 | 229 | 2.0 | 5.0 | 0.00 | 0.00 | 0.00 | 56 | 1012.2 |
| 20260503100203 | 50 | 164 | 2.0 | 7.0 | 0.00 | 0.00 | 0.00 | 55 | 1012.8 |
| 20260503090204 | 49 | 248 | 2.0 | 4.0 | 0.00 | 0.00 | 0.00 | 56 | 1013.2 |